createdAt,value
2019-04-07T01:03:12.953Z,5.47
2019-04-07T01:05:43.538Z,5.46
2019-04-07T01:08:14.014Z,5.44
2019-04-07T01:10:44.474Z,5.47
2019-04-07T01:13:14.702Z,5.34
2019-04-07T01:15:44.995Z,5.27
2019-04-07T01:18:15.440Z,5.24
2019-04-07T01:20:46.737Z,5.40
2019-04-07T01:23:17.134Z,5.46
2019-04-07T01:25:47.328Z,5.39
2019-04-07T01:28:17.736Z,5.38
2019-04-07T01:30:49.145Z,5.39
2019-04-07T01:33:19.598Z,5.32
2019-04-07T01:35:50.392Z,5.32
2019-04-07T01:38:21.331Z,5.30
2019-04-07T01:41:17.532Z,5.35
2019-04-07T01:43:53.613Z,5.44
2019-04-07T01:46:42.885Z,5.39
2019-04-07T01:49:39.016Z,5.31
2019-04-07T01:52:14.930Z,5.32
2019-04-07T01:54:57.479Z,5.32
2019-04-07T01:57:59.719Z,5.29
2019-04-07T02:00:40.430Z,5.21
2019-04-07T02:03:23.115Z,5.18
2019-04-07T02:06:15.599Z,5.09
2019-04-07T02:09:00.814Z,5.09
2019-04-07T02:11:55.556Z,5.12
2019-04-07T02:14:39.289Z,5.18
2019-04-07T02:17:28.460Z,5.28
2019-04-07T02:20:33.342Z,5.14
2019-04-07T02:23:26.485Z,5.12
2019-04-07T02:26:03.537Z,5.19
2019-04-07T02:29:01.922Z,5.32
2019-04-07T02:31:50.033Z,5.26
2019-04-07T02:34:29.801Z,5.34
2019-04-07T02:37:31.323Z,5.30
2019-04-07T02:40:33.110Z,5.32
2019-04-07T02:43:19.540Z,5.18
2019-04-07T02:46:09.620Z,4.89
2019-04-07T02:48:51.159Z,4.84
2019-04-07T02:51:40.305Z,4.83
2019-04-07T02:54:29.002Z,4.86
2019-04-07T02:57:11.347Z,4.90
2019-04-07T03:03:36.857Z,4.86
2019-04-07T03:06:44.115Z,4.78
2019-04-07T03:09:19.463Z,4.81
2019-04-07T03:12:11.047Z,4.71
2019-04-07T03:14:59.335Z,4.68
2019-04-07T03:17:40.374Z,4.51
2019-04-07T03:20:20.986Z,4.51
2019-04-07T03:23:03.393Z,4.47
2019-04-07T03:25:51.453Z,4.54
2019-04-07T03:28:30.495Z,4.54
2019-04-07T03:31:23.952Z,4.53
2019-04-07T03:34:05.680Z,4.49
2019-04-07T03:37:12.786Z,4.45
2019-04-07T03:39:33.891Z,4.50
2019-04-07T03:42:17.912Z,4.44
2019-04-07T03:44:54.891Z,4.38
2019-04-07T03:47:33.115Z,4.39
2019-04-07T03:50:12.382Z,4.32
2019-04-07T03:53:01.747Z,4.33
2019-04-07T03:55:51.320Z,4.31
2019-04-07T03:58:40.355Z,4.34
2019-04-07T04:01:29.723Z,4.36
2019-04-07T04:04:28.626Z,4.34
2019-04-07T04:07:18.050Z,4.27
2019-04-07T04:09:48.357Z,4.20
2019-04-07T04:12:31.898Z,4.17
2019-04-07T04:15:06.755Z,4.16
2019-04-07T04:17:37.218Z,4.14
2019-04-07T04:20:08.390Z,4.08
2019-04-07T04:22:39.575Z,4.07
2019-04-07T04:25:10.920Z,4.09
2019-04-07T04:27:41.948Z,4.08
2019-04-07T04:30:13.498Z,4.14
2019-04-07T04:32:43.845Z,4.10
2019-04-07T04:35:14.971Z,4.21
2019-04-07T04:37:50.201Z,4.19
2019-04-07T04:40:17.800Z,4.31
2019-04-07T04:42:48.501Z,4.37
2019-04-07T04:45:19.237Z,4.38
2019-04-07T04:47:49.471Z,4.47
2019-04-07T04:50:19.843Z,4.58
2019-04-07T04:52:50.148Z,4.66
2019-04-07T04:55:20.397Z,4.62
2019-04-07T04:57:51.193Z,4.66
2019-04-07T05:03:12.716Z,4.75
2019-04-07T05:05:43.233Z,4.77
2019-04-07T05:08:13.454Z,4.85
2019-04-07T05:10:43.992Z,4.77
2019-04-07T05:13:14.490Z,4.83
2019-04-07T05:15:45.577Z,4.84
2019-04-07T05:18:16.562Z,4.91
2019-04-07T05:20:47.643Z,4.94
2019-04-07T05:23:18.143Z,5.04
2019-04-07T05:25:48.429Z,5.08
2019-04-07T05:28:19.116Z,5.13
2019-04-07T05:30:50.145Z,5.28
2019-04-07T05:33:21.115Z,5.43
2019-04-07T05:35:51.692Z,5.50
2019-04-07T05:38:22.371Z,5.56
2019-04-07T05:40:52.686Z,5.67
2019-04-07T05:43:22.910Z,5.73
2019-04-07T05:45:53.189Z,5.85
2019-04-07T05:48:23.800Z,5.96
2019-04-07T05:50:56.135Z,6.08
2019-04-07T05:53:27.758Z,6.22
2019-04-07T05:55:58.037Z,6.31
2019-04-07T05:58:28.115Z,6.42
2019-04-07T06:00:58.703Z,6.51
2019-04-07T06:03:28.852Z,6.60
2019-04-07T06:05:59.365Z,6.75
2019-04-07T06:08:36.017Z,6.85
2019-04-07T06:11:02.429Z,7.04
2019-04-07T06:13:32.945Z,7.16
2019-04-07T06:16:03.321Z,7.27
2019-04-07T06:18:34.286Z,7.36
2019-04-07T06:21:04.870Z,7.50
2019-04-07T06:23:35.451Z,7.58
2019-04-07T06:26:11.211Z,7.72
2019-04-07T06:28:39.296Z,7.95
2019-04-07T06:31:10.625Z,8.05
2019-04-07T06:33:41.497Z,8.11
2019-04-07T06:36:13.186Z,8.25
2019-04-07T06:38:49.813Z,8.44
2019-04-07T06:41:17.354Z,8.63
2019-04-07T06:43:47.505Z,8.75
2019-04-07T06:46:52.483Z,8.83
2019-04-07T06:49:44.712Z,8.85
2019-04-07T06:52:34.617Z,8.93
2019-04-07T06:55:29.677Z,9.09
2019-04-07T06:58:32.288Z,9.32
2019-04-07T07:03:54.550Z,9.83
2019-04-07T07:06:46.044Z,10.06
2019-04-07T07:09:33.507Z,9.91
2019-04-07T07:12:22.679Z,9.94
2019-04-07T07:15:06.208Z,10.12
2019-04-07T07:18:04.728Z,10.80
2019-04-07T07:21:06.866Z,10.66
2019-04-07T07:23:47.090Z,10.53
2019-04-07T07:26:13.991Z,10.96
2019-04-07T07:28:44.976Z,11.32
2019-04-07T07:31:16.673Z,11.48
2019-04-07T07:33:47.424Z,11.14
2019-04-07T07:36:20.609Z,11.53
2019-04-07T07:38:59.024Z,11.73
2019-04-07T07:41:23.281Z,11.65
2019-04-07T07:43:54.750Z,11.24
2019-04-07T07:46:25.158Z,11.52
2019-04-07T07:48:58.784Z,11.22
2019-04-07T07:51:27.628Z,10.97
2019-04-07T07:54:00.550Z,10.96
2019-04-07T07:56:30.304Z,11.13
2019-04-07T07:59:01.811Z,11.43
2019-04-07T08:01:33.214Z,11.76
2019-04-07T08:04:03.682Z,11.74
2019-04-07T08:06:34.663Z,11.72
2019-04-07T08:09:13.721Z,11.66
2019-04-07T08:11:41.137Z,12.17
2019-04-07T08:14:14.519Z,12.51
2019-04-07T08:16:43.650Z,12.37
2019-04-07T08:19:14.153Z,12.31
2019-04-07T08:21:45.585Z,12.95
2019-04-07T08:24:19.040Z,13.09
2019-04-07T08:26:49.188Z,12.97
2019-04-07T08:29:20.192Z,12.86
2019-04-07T08:31:54.017Z,13.18
2019-04-07T08:34:23.183Z,13.26
2019-04-07T08:36:54.128Z,12.93
2019-04-07T08:39:26.971Z,12.97
2019-04-07T08:41:57.176Z,12.92
2019-04-07T08:44:29.402Z,13.61
2019-04-07T08:46:59.401Z,12.80
2019-04-07T08:49:32.358Z,12.80
2019-04-07T08:52:07.996Z,12.97
2019-04-07T08:54:33.975Z,12.67
2019-04-07T08:57:04.604Z,12.72
2019-04-07T08:59:35.337Z,12.70
2019-04-07T09:03:18.782Z,12.78
2019-04-07T09:05:49.088Z,12.67
2019-04-07T09:08:20.325Z,12.27
2019-04-07T09:11:06.186Z,12.53
2019-04-07T09:13:36.379Z,12.80
2019-04-07T09:16:18.677Z,12.48
2019-04-07T09:19:08.297Z,12.59
2019-04-07T09:21:50.399Z,12.92
2019-04-07T09:24:34.078Z,13.20
2019-04-07T09:27:18.527Z,13.59
2019-04-07T09:29:55.783Z,13.60
2019-04-07T09:32:42.812Z,13.49
2019-04-07T09:35:34.554Z,13.10
2019-04-07T09:38:26.182Z,13.18
2019-04-07T09:41:14.358Z,13.43
2019-04-07T09:44:01.177Z,13.13
2019-04-07T09:47:02.766Z,13.49
2019-04-07T11:03:40.548Z,15.64
2019-04-07T11:06:22.694Z,15.44
2019-04-07T11:09:30.051Z,15.16
2019-04-07T11:12:28.817Z,15.17
2019-04-07T11:15:16.756Z,15.39
2019-04-07T11:18:05.186Z,15.72
2019-04-07T11:20:47.255Z,15.67
2019-04-07T11:23:40.401Z,15.96
2019-04-07T11:26:28.195Z,16.42
2019-04-07T11:29:14.253Z,16.04
2019-04-07T11:31:51.612Z,15.93
2019-04-07T11:34:41.648Z,16.43
2019-04-07T11:37:31.059Z,16.27
2019-04-07T11:40:42.090Z,16.61
2019-04-07T11:43:30.416Z,16.48
2019-04-07T11:46:09.568Z,17.15
2019-04-07T11:48:59.037Z,16.45
2019-04-07T11:51:50.503Z,16.62
2019-04-07T11:54:31.549Z,17.12
2019-04-07T11:57:15.291Z,17.89
2019-04-07T11:59:55.703Z,17.36
2019-04-07T12:02:49.279Z,18.04
2019-04-07T12:05:39.767Z,18.05
2019-04-07T12:08:19.028Z,17.48
2019-04-07T12:11:08.248Z,17.60
2019-04-07T12:13:56.318Z,18.21
2019-04-07T12:16:35.074Z,18.25
2019-04-07T12:19:36.796Z,18.03
2019-04-07T12:22:44.329Z,17.43
2019-04-07T12:25:40.085Z,17.64
2019-04-07T12:28:28.574Z,16.93
2019-04-07T12:31:17.422Z,17.44
2019-04-07T12:33:54.905Z,16.89
2019-04-07T12:36:50.055Z,17.16
2019-04-07T12:39:50.165Z,17.74
2019-04-07T12:42:39.558Z,16.91
2019-04-07T12:45:34.739Z,17.10
2019-04-07T12:48:29.997Z,16.78
2019-04-07T12:51:27.542Z,16.78
2019-04-07T12:54:07.386Z,17.41
2019-04-07T12:56:54.738Z,17.58
2019-04-07T13:03:41.551Z,18.37
2019-04-07T13:06:42.228Z,18.26
2019-04-07T13:09:32.347Z,17.58
2019-04-07T13:12:25.834Z,17.42
2019-04-07T13:15:04.194Z,17.01
2019-04-07T13:18:12.179Z,17.06
2019-04-07T13:21:02.145Z,16.76
2019-04-07T13:23:51.786Z,16.64
2019-04-07T13:26:32.400Z,16.96
2019-04-07T13:29:19.216Z,17.01
2019-04-07T13:32:04.413Z,16.94
2019-04-07T13:34:46.034Z,16.65
2019-04-07T13:37:23.958Z,16.45
2019-04-07T13:40:19.858Z,16.59
2019-04-07T13:43:09.411Z,16.48
2019-04-07T13:45:50.654Z,16.22
2019-04-07T13:48:31.203Z,16.07
2019-04-07T13:51:19.153Z,16.23
2019-04-07T13:54:27.760Z,16.10
2019-04-07T13:57:10.318Z,16.12
2019-04-07T14:00:04.085Z,16.33
2019-04-07T14:02:55.007Z,16.23
2019-04-07T14:05:46.317Z,16.11
2019-04-07T14:08:32.169Z,16.30
2019-04-07T14:11:27.556Z,16.33
2019-04-07T14:14:07.949Z,16.35
2019-04-07T14:16:57.429Z,16.49
2019-04-07T14:19:39.743Z,16.46
2019-04-07T14:22:32.151Z,16.41
2019-04-07T14:25:13.019Z,16.11
2019-04-07T14:27:51.492Z,16.03
2019-04-07T14:30:58.937Z,15.97
2019-04-07T14:33:46.800Z,15.98
2019-04-07T14:36:30.105Z,15.91
2019-04-07T14:39:11.743Z,15.97
2019-04-07T14:42:03.945Z,15.84
2019-04-07T14:44:41.213Z,15.96
2019-04-07T14:47:37.052Z,15.89
2019-04-07T14:50:27.170Z,15.77
2019-04-07T14:53:13.210Z,15.83
2019-04-07T14:55:52.476Z,15.82
2019-04-07T14:58:53.945Z,15.83
2019-04-07T15:03:20.274Z,15.79
2019-04-07T15:05:55.199Z,15.86
2019-04-07T15:08:41.993Z,15.88
2019-04-07T15:11:29.747Z,15.81
2019-04-07T15:14:01.510Z,15.75
2019-04-07T15:16:32.883Z,15.60
2019-04-07T15:19:03.516Z,15.61
2019-04-07T15:21:34.458Z,15.63
2019-04-07T15:24:07.237Z,15.46
2019-04-07T15:26:37.826Z,15.57
2019-04-07T15:29:10.717Z,15.61
2019-04-07T15:31:41.886Z,15.49
2019-04-07T15:34:14.175Z,15.49
2019-04-07T15:36:48.051Z,15.56
2019-04-07T15:39:17.222Z,15.47
2019-04-07T15:41:47.806Z,15.52
2019-04-07T15:44:18.272Z,15.40
2019-04-07T15:46:51.568Z,15.39
2019-04-07T15:49:23.483Z,15.56
2019-04-07T15:51:52.604Z,15.37
2019-04-07T15:54:24.248Z,15.42
2019-04-07T15:56:55.313Z,15.42
2019-04-07T15:59:29.396Z,15.45
2019-04-07T16:01:59.023Z,15.34
2019-04-07T16:04:30.716Z,15.41
2019-04-07T16:07:02.262Z,15.33
2019-04-07T16:09:40.320Z,15.37
2019-04-07T16:12:06.643Z,15.24
2019-04-07T16:14:37.461Z,15.15
2019-04-07T16:17:10.554Z,15.15
2019-04-07T16:19:43.753Z,15.07
2019-04-07T16:22:13.363Z,15.07
2019-04-07T16:24:44.021Z,15.02
2019-04-07T16:27:15.127Z,15.02
2019-04-07T16:29:47.123Z,15.04
2019-04-07T16:32:19.646Z,15.01
2019-04-07T16:34:50.122Z,14.96
2019-04-07T16:37:20.630Z,14.94
2019-04-07T16:39:52.533Z,14.90
2019-04-07T16:42:26.541Z,14.90
2019-04-07T16:44:59.664Z,14.87
2019-04-07T16:47:35.850Z,14.81
2019-04-07T16:50:08.964Z,14.80
2019-04-07T16:52:43.147Z,14.84
2019-04-07T16:55:40.271Z,14.77
2019-04-07T16:58:15.892Z,14.84
2019-04-07T17:03:17.128Z,14.59
2019-04-07T17:05:48.804Z,14.60
2019-04-07T17:08:22.179Z,14.52
2019-04-07T17:10:51.432Z,14.62
2019-04-07T17:13:31.340Z,14.59
2019-04-07T17:15:55.380Z,14.58
2019-04-07T17:18:43.310Z,14.52
2019-04-07T17:21:16.720Z,14.47
2019-04-07T17:23:47.587Z,14.43
2019-04-07T17:26:18.222Z,14.38
2019-04-07T17:28:49.989Z,14.33
2019-04-07T17:31:20.866Z,14.28
2019-04-07T17:33:52.086Z,14.24
2019-04-07T17:36:25.116Z,14.28
2019-04-07T17:39:14.470Z,14.27
2019-04-07T17:41:48.334Z,14.19
2019-04-07T17:44:42.432Z,14.22
2019-04-07T17:47:31.106Z,14.25
2019-04-07T17:50:07.398Z,14.13
2019-04-07T17:53:16.278Z,14.09
2019-04-07T17:56:14.713Z,14.07
2019-04-07T17:58:59.803Z,14.02
2019-04-07T18:01:56.404Z,13.89
2019-04-07T18:04:52.142Z,13.99
2019-04-07T18:07:37.684Z,13.96
2019-04-07T18:10:27.662Z,13.88
2019-04-07T18:13:21.823Z,13.81
2019-04-07T18:16:12.272Z,13.81
2019-04-07T18:19:01.522Z,13.77
2019-04-07T18:21:52.417Z,13.73
2019-04-07T18:24:34.941Z,13.87
2019-04-07T18:27:15.565Z,13.80
2019-04-07T18:30:16.456Z,13.83
2019-04-07T18:32:55.690Z,13.74
2019-04-07T18:35:43.999Z,13.71
2019-04-07T18:38:33.058Z,13.71
2019-04-07T18:41:17.561Z,13.61
2019-04-07T18:44:08.372Z,13.58
2019-04-07T18:47:03.278Z,13.49
2019-04-07T18:49:50.852Z,13.46
2019-04-07T18:52:42.098Z,13.45
2019-04-07T18:55:46.393Z,13.35
2019-04-07T18:58:26.642Z,13.27
2019-04-07T19:03:40.627Z,13.12
2019-04-07T19:06:26.046Z,13.12
2019-04-07T19:09:08.230Z,13.03
2019-04-07T19:12:04.171Z,13.05
2019-04-07T19:14:46.079Z,12.94
2019-04-07T19:17:26.904Z,13.08
2019-04-07T19:20:31.715Z,12.87
2019-04-07T19:23:15.261Z,12.79
2019-04-07T19:26:00.983Z,12.79
2019-04-07T19:28:45.390Z,12.73
2019-04-07T19:31:34.174Z,12.67
2019-04-07T19:34:18.423Z,12.65
2019-04-07T19:37:10.265Z,12.69
2019-04-07T19:39:57.407Z,12.68
2019-04-07T19:42:39.896Z,12.69
2019-04-07T19:45:28.887Z,12.64
2019-04-07T19:48:08.723Z,12.62
2019-04-07T19:50:57.650Z,12.62
2019-04-07T19:54:06.638Z,12.49
2019-04-07T19:56:51.601Z,12.53
2019-04-07T19:59:30.164Z,12.48
2019-04-07T20:02:34.920Z,12.47
2019-04-07T20:05:12.237Z,12.44
2019-04-07T20:08:02.942Z,12.42
2019-04-07T20:10:58.917Z,12.42
2019-04-07T20:13:40.902Z,12.44
2019-04-07T20:16:33.225Z,12.37
2019-04-07T20:19:27.866Z,12.38
2019-04-07T20:22:13.366Z,12.39
2019-04-07T20:25:01.329Z,12.34
2019-04-07T20:27:57.226Z,12.29
2019-04-07T20:30:56.910Z,12.27
2019-04-07T20:33:46.884Z,12.26
2019-04-07T20:36:26.430Z,12.17
2019-04-07T20:39:09.901Z,12.13
2019-04-07T20:41:58.761Z,12.17
2019-04-07T20:44:58.392Z,12.12
2019-04-07T20:47:42.474Z,12.13
2019-04-07T20:50:33.496Z,12.03
2019-04-07T20:53:23.859Z,12.01
2019-04-07T20:56:12.663Z,11.99
2019-04-07T20:59:08.227Z,12.04
2019-04-07T21:03:37.488Z,11.86
2019-04-07T21:06:29.346Z,11.87
2019-04-07T21:09:15.306Z,11.89
2019-04-07T21:11:57.259Z,11.89
2019-04-07T21:14:45.340Z,11.86
2019-04-07T21:17:35.835Z,11.81
2019-04-07T21:20:26.564Z,11.84
2019-04-07T21:23:18.087Z,11.85
2019-04-07T21:26:09.980Z,11.90
2019-04-07T21:28:59.269Z,11.82
2019-04-07T23:03:12.158Z,10.53
2019-04-07T23:05:42.504Z,10.39
2019-04-07T23:08:12.989Z,10.33
2019-04-07T23:10:44.263Z,10.28
2019-04-07T23:13:15.429Z,10.21
2019-04-07T23:15:47.208Z,10.16
2019-04-07T23:18:17.988Z,10.16
2019-04-07T23:20:48.160Z,10.19
2019-04-07T23:23:18.495Z,10.12
2019-04-07T23:25:48.799Z,10.11
2019-04-07T23:28:19.254Z,10.13
2019-04-07T23:30:49.592Z,10.11
2019-04-07T23:33:20.202Z,10.11
2019-04-07T23:35:50.683Z,10.28
2019-04-07T23:38:21.867Z,10.12
2019-04-07T23:40:52.260Z,10.13
2019-04-07T23:43:22.562Z,10.12
2019-04-07T23:45:52.898Z,10.12
2019-04-07T23:48:23.159Z,10.09
2019-04-07T23:50:54.060Z,10.08
2019-04-07T23:54:07.557Z,10.06
2019-04-07T23:56:39.336Z,9.98
2019-04-07T23:59:10.628Z,10.11
